Nearby METAR Reports

   
KBNA - Nashville, TN
Updated: Nov 18 2018 11:53 am
Mostly Cloudy  
Mostly Cloudy  
   Wind: South 9.2 mph
Wind: South 9.2 mph
Temperature: 62.6°F
Dew Point: 42.8°F
Humidity: 49%
Barometer: 30.2 inHg
Clouds: Mostly Cloudy
Visibility: 10 mi
Cloud details: Partly Cloudy 6096 m,
Mostly Cloudy 7620 m
KBNA 181753Z 19008KT 10SM SCT200 BKN250 17/06 A3020 RMK AO2 SLP226 T01720056 10172 20039 58017
KGZS - Lawrenceburg, TN
Updated: Nov 18 2018 12:15 pm
Clear  
Clear  
   Wind: SSE 4.6 mph
Wind: SSE 4.6 mph
Temperature: 60.8°F
Dew Point: 46.4°F
Humidity: 59%
Barometer: 30.2 inHg
Clouds: Clear
Visibility: 10 mi
Cloud details: Clear
KGZS 181815Z AUTO 16004KT 10SM CLR 16/08 A3020 RMK A01
KOLV - Olive Branch, MS
Updated: Nov 18 2018 11:50 am
Mostly Cloudy  
Mostly Cloudy  
   Wind: West 4.6 mph
Wind: West 4.6 mph
Temperature: 62.6°F
Dew Point: 50°F
Humidity: 64%
Barometer: 30.18 inHg
Clouds: Mostly Cloudy
Visibility: 10 mi
Cloud details: Partly Cloudy 1524 m,
Mostly Cloudy 1676.4 m,
Mostly Cloudy 7620 m
KOLV 181750Z 27004KT 10SM SCT050 BKN055 BKN250 17/10 A3018
KCHA - Chattanooga, TN
Updated: Nov 18 2018 11:53 am
Mostly Cloudy  
Mostly Cloudy  
   Wind: Calm
Wind: Calm
Temperature: 57.2°F
Dew Point: 42.8°F
Humidity: 59%
Barometer: 30.24 inHg
Clouds: Mostly Cloudy
Visibility: 10 mi
Cloud details: Mostly Cloudy 6096 m
KCHA 181753Z 00000KT 10SM BKN200 14/06 A3024 RMK AO2 SLP242 T01390061 10139 20022 58022 $
KMEM - Memphis, TN
Updated: Nov 18 2018 11:54 am
Mostly Cloudy  
Mostly Cloudy  
   Wind: WSW 6.9 mph
Wind: WSW 6.9 mph
Temperature: 62.6°F
Dew Point: 51.8°F
Humidity: 68%
Barometer: 30.19 inHg
Clouds: Mostly Cloudy
Visibility: 10 mi
Cloud details: Few Clouds 762 m,
Partly Cloudy 1524 m,
Mostly Cloudy 7620 m
KMEM 181754Z 24006KT 10SM FEW025 SCT050 BKN250 17/11 A3019 RMK AO2 SLP223 T01720106 10183 20061 58012
KTYS - Knoxville, TN
Updated: Nov 18 2018 11:53 am
Overcast  
Overcast  
   Wind: varies 3.5 mph
Wind: varies 3.5 mph
Temperature: 55.4°F
Dew Point: 39.2°F
Humidity: 55%
Barometer: 30.23 inHg
Clouds: Overcast
Visibility: 10 mi
Cloud details: Overcast 7620 m
KTYS 181753Z VRB03KT 10SM OVC250 13/04 A3023 RMK AO2 SLP237 I6000 T01280044 10128 21006 58020

Script developed by  Saratoga-weather.org Adapted for the template by  Weerstation Leuven